createdAt,value
2019-06-26T00:01:38.844Z,64.45
2019-06-26T00:04:05.325Z,63.05
2019-06-26T00:06:31.772Z,66.00
2019-06-26T00:08:58.164Z,68.37
2019-06-26T00:11:24.544Z,61.02
2019-06-26T00:13:50.975Z,62.30
2019-06-26T00:16:17.452Z,64.72
2019-06-26T00:18:43.965Z,65.72
2019-06-26T00:21:10.410Z,70.30
2019-06-26T00:23:37.194Z,64.17
2019-06-26T00:26:03.734Z,66.67
2019-06-26T00:28:30.088Z,64.62
2019-06-26T00:30:56.461Z,71.70
2019-06-26T00:33:22.791Z,69.20
2019-06-26T00:35:49.425Z,66.87
2019-06-26T00:38:15.867Z,61.77
2019-06-26T00:40:42.368Z,58.75
2019-06-26T00:43:11.117Z,62.60
2019-06-26T00:45:38.767Z,71.47
2019-06-26T00:48:05.319Z,62.48
2019-06-26T00:50:32.605Z,67.35
2019-06-26T00:52:59.054Z,70.47
2019-06-26T00:55:25.658Z,65.78
2019-06-26T00:57:52.147Z,75.60
2019-06-26T01:00:22.295Z,67.87
2019-06-26T01:02:48.673Z,69.12
2019-06-26T01:05:15.819Z,69.82
2019-06-26T01:07:42.126Z,75.47
2019-06-26T01:10:11.083Z,66.25
2019-06-26T01:12:37.740Z,69.42
2019-06-26T01:15:05.137Z,64.37
2019-06-26T01:17:32.745Z,66.87
2019-06-26T01:19:59.213Z,61.60
2019-06-26T01:22:25.820Z,70.87
2019-06-26T01:24:52.553Z,62.30
2019-06-26T01:27:19.623Z,72.37
2019-06-26T01:29:46.124Z,67.80
2019-06-26T01:32:12.728Z,70.92
2019-06-26T01:34:39.176Z,69.30
2019-06-26T01:37:05.610Z,70.35
2019-06-26T01:39:32.062Z,74.47
2019-06-26T01:41:58.402Z,66.85
2019-06-26T01:44:25.153Z,70.47
2019-06-26T01:46:51.844Z,65.60
2019-06-26T01:49:18.220Z,67.27
2019-06-26T01:51:44.600Z,63.33
2019-06-26T01:54:10.930Z,68.12
2019-06-26T01:56:37.244Z,73.60
2019-06-26T01:59:03.696Z,65.37
2019-06-26T02:01:30.130Z,72.12
2019-06-26T02:03:56.429Z,67.53
2019-06-26T02:06:24.188Z,67.53
2019-06-26T02:08:50.599Z,68.62
2019-06-26T02:11:18.407Z,70.28
2019-06-26T02:13:44.964Z,61.15
2019-06-26T02:16:11.501Z,61.33
2019-06-26T02:18:40.080Z,61.60
2019-06-26T02:21:06.583Z,62.73
2019-06-26T02:23:33.158Z,65.15
2019-06-26T02:26:00.970Z,65.83
2019-06-26T02:28:27.444Z,62.40
2019-06-26T02:30:53.895Z,60.80
2019-06-26T02:33:20.800Z,58.60
2019-06-26T02:35:47.286Z,64.03
2019-06-26T02:38:15.499Z,58.85
2019-06-26T02:40:41.887Z,62.27
2019-06-26T02:43:08.514Z,60.75
2019-06-26T02:45:34.911Z,64.55
2019-06-26T02:48:01.298Z,60.33
2019-06-26T02:50:27.691Z,63.60
2019-06-26T02:52:53.973Z,60.98
2019-06-26T02:55:20.448Z,56.80
2019-06-26T02:57:47.161Z,60.85
2019-06-26T03:00:13.952Z,62.60
2019-06-26T03:02:40.498Z,60.23
2019-06-26T03:05:07.271Z,66.90
2019-06-26T03:07:33.805Z,67.27
2019-06-26T03:10:00.231Z,68.47
2019-06-26T03:12:26.683Z,74.97
2019-06-26T03:15:07.852Z,77.37
2019-06-26T03:17:21.640Z,79.35
2019-06-26T03:19:49.257Z,84.97
2019-06-26T03:22:17.783Z,75.85
2019-06-26T03:24:44.354Z,70.65
2019-06-26T03:27:11.008Z,74.65
2019-06-26T03:29:39.133Z,79.97
2019-06-26T03:32:05.551Z,73.92
2019-06-26T03:34:31.922Z,73.57
2019-06-26T03:36:58.634Z,75.92
2019-06-26T03:39:25.081Z,74.07
2019-06-26T03:41:51.547Z,81.05
2019-06-26T03:44:17.953Z,81.32
2019-06-26T03:46:44.359Z,78.17
2019-06-26T03:49:10.739Z,72.55
2019-06-26T03:51:37.202Z,72.42
2019-06-26T03:54:04.377Z,70.78
2019-06-26T03:56:30.959Z,71.60
2019-06-26T03:58:57.402Z,73.20
2019-06-26T04:01:23.908Z,75.05
2019-06-26T04:03:50.322Z,76.62
2019-06-26T04:06:16.749Z,80.10
2019-06-26T04:08:43.168Z,75.80
2019-06-26T04:11:09.901Z,75.03
2019-06-26T04:13:36.901Z,71.72
2019-06-26T04:16:03.659Z,64.60
2019-06-26T04:18:30.698Z,63.23
2019-06-26T04:20:57.703Z,60.15
2019-06-26T04:23:24.772Z,57.33
2019-06-26T04:25:51.842Z,56.33
2019-06-26T04:28:18.570Z,55.10
2019-06-26T04:30:46.718Z,60.95
2019-06-26T04:33:13.169Z,53.63
2019-06-26T04:35:39.771Z,53.83
2019-06-26T04:38:06.306Z,52.85
2019-06-26T04:40:32.792Z,60.90
2019-06-26T04:42:59.248Z,57.78
2019-06-26T04:45:25.684Z,53.83
2019-06-26T04:47:52.165Z,51.92
2019-06-26T04:50:20.341Z,57.75
2019-06-26T04:52:47.214Z,55.08
2019-06-26T04:55:14.236Z,58.80
2019-06-26T04:57:43.076Z,56.42
2019-06-26T05:00:11.841Z,59.73
2019-06-26T05:02:38.606Z,62.27
2019-06-26T05:05:06.603Z,61.95
2019-06-26T05:07:33.227Z,63.28
2019-06-26T05:09:59.916Z,58.05
2019-06-26T05:12:26.323Z,55.95
2019-06-26T05:14:52.979Z,58.00
2019-06-26T05:17:19.395Z,59.25
2019-06-26T05:19:45.782Z,54.93
2019-06-26T05:22:12.137Z,61.25
2019-06-26T05:24:38.564Z,51.55
2019-06-26T05:27:04.865Z,49.73
2019-06-26T05:29:31.230Z,57.90
2019-06-26T05:31:57.724Z,57.98
2019-06-26T05:34:24.118Z,60.75
2019-06-26T05:36:50.404Z,58.87
2019-06-26T05:39:16.696Z,60.50
2019-06-26T05:41:43.057Z,52.03
2019-06-26T05:44:09.617Z,52.30
2019-06-26T05:46:35.964Z,55.63
2019-06-26T05:49:02.790Z,51.98
2019-06-26T05:51:29.440Z,54.95
2019-06-26T05:53:55.743Z,63.13
2019-06-26T05:56:22.175Z,57.00
2019-06-26T05:58:48.496Z,56.23
2019-06-26T06:01:15.116Z,54.95
2019-06-26T06:03:41.506Z,60.17
2019-06-26T06:06:08.022Z,59.50
2019-06-26T06:08:34.405Z,55.60
2019-06-26T06:11:00.878Z,51.18
2019-06-26T06:13:27.524Z,50.80
2019-06-26T06:15:53.874Z,51.18
2019-06-26T06:18:22.215Z,46.90
2019-06-26T06:20:48.714Z,46.98
2019-06-26T06:23:15.124Z,50.70
2019-06-26T06:25:41.426Z,45.38
2019-06-26T06:28:07.760Z,53.73
2019-06-26T06:30:34.181Z,48.02
2019-06-26T06:33:00.861Z,45.65
2019-06-26T06:35:27.300Z,47.48
2019-06-26T06:37:53.563Z,46.00
2019-06-26T06:40:21.367Z,49.85
2019-06-26T06:42:47.725Z,45.38
2019-06-26T06:45:14.346Z,46.80
2019-06-26T06:47:40.683Z,52.08
2019-06-26T06:50:07.065Z,46.45
2019-06-26T06:52:33.505Z,45.50
2019-06-26T06:55:00.085Z,43.40
2019-06-26T06:57:26.556Z,49.70
2019-06-26T06:59:53.165Z,48.42
2019-06-26T07:02:19.886Z,49.38
2019-06-26T07:04:46.358Z,48.28
2019-06-26T07:07:12.812Z,52.83
2019-06-26T07:09:39.196Z,54.80
2019-06-26T07:12:05.737Z,53.68
2019-06-26T07:14:33.348Z,56.95
2019-06-26T07:17:01.494Z,53.92
2019-06-26T07:19:28.458Z,55.10
2019-06-26T07:21:54.808Z,50.25
2019-06-26T07:24:21.297Z,50.90
2019-06-26T07:26:47.696Z,53.35
2019-06-26T07:29:14.038Z,50.45
2019-06-26T07:31:40.507Z,48.17
2019-06-26T07:34:07.071Z,50.78
2019-06-26T07:36:35.511Z,52.27
2019-06-26T07:39:04.421Z,50.85
2019-06-26T07:41:32.464Z,56.15
2019-06-26T07:43:59.159Z,45.45
2019-06-26T07:46:25.445Z,45.55
2019-06-26T07:48:51.781Z,44.00
2019-06-26T07:51:18.114Z,42.62
2019-06-26T07:53:44.608Z,43.50
2019-06-26T07:56:12.971Z,49.48
2019-06-26T07:58:39.343Z,53.23
2019-06-26T08:01:05.675Z,47.70
2019-06-26T08:03:32.366Z,47.53
2019-06-26T08:05:58.967Z,50.03
2019-06-26T08:08:25.447Z,48.42
2019-06-26T08:10:51.727Z,42.35
2019-06-26T08:13:18.138Z,44.93
2019-06-26T08:15:44.468Z,48.83
2019-06-26T08:18:11.061Z,44.45
2019-06-26T08:20:51.960Z,46.37
2019-06-26T08:23:06.752Z,48.10
2019-06-26T08:25:33.369Z,50.98
2019-06-26T08:27:59.671Z,51.73
2019-06-26T08:30:26.236Z,68.60
2019-06-26T08:32:52.770Z,55.80
2019-06-26T08:35:19.157Z,52.00
2019-06-26T08:37:45.633Z,52.05
2019-06-26T08:40:13.524Z,50.80
2019-06-26T08:42:39.927Z,53.05
2019-06-26T08:45:08.079Z,53.70
2019-06-26T08:47:34.474Z,54.90
2019-06-26T08:50:00.867Z,57.30
2019-06-26T08:52:27.281Z,59.20
2019-06-26T08:54:53.645Z,52.73
2019-06-26T08:57:19.968Z,56.23
2019-06-26T08:59:46.319Z,56.63
2019-06-26T09:02:12.784Z,55.52
2019-06-26T09:04:39.597Z,53.30
2019-06-26T09:07:06.210Z,54.05
2019-06-26T09:09:32.663Z,56.33
2019-06-26T09:11:59.224Z,53.73
2019-06-26T09:14:25.821Z,57.45
2019-06-26T09:16:52.532Z,52.00
2019-06-26T09:19:19.326Z,53.25
2019-06-26T09:21:47.597Z,56.68
2019-06-26T09:24:14.182Z,54.90
2019-06-26T09:26:40.675Z,56.68
2019-06-26T09:29:07.183Z,58.52
2019-06-26T09:31:33.935Z,56.08
2019-06-26T09:34:00.505Z,52.40
2019-06-26T09:36:27.099Z,56.90
2019-06-26T09:38:55.640Z,48.87
2019-06-26T09:41:21.863Z,54.35
2019-06-26T09:43:48.262Z,51.20
2019-06-26T09:46:14.775Z,53.10
2019-06-26T09:48:52.097Z,50.10
2019-06-26T09:51:09.603Z,51.13
2019-06-26T09:53:47.056Z,52.95
2019-06-26T09:56:07.193Z,51.15
2019-06-26T09:58:33.657Z,48.95
2019-06-26T10:01:00.055Z,52.10
2019-06-26T10:03:26.557Z,50.43
2019-06-26T10:05:53.134Z,50.95
2019-06-26T10:08:19.740Z,56.25
2019-06-26T10:10:46.408Z,52.05
2019-06-26T10:13:12.930Z,44.95
2019-06-26T10:15:39.394Z,48.38
2019-06-26T10:18:08.139Z,47.30
2019-06-26T10:20:34.551Z,50.28
2019-06-26T10:23:02.869Z,51.88
2019-06-26T10:25:29.307Z,52.55
2019-06-26T10:27:56.104Z,44.45
2019-06-26T10:30:22.897Z,44.35
2019-06-26T10:32:49.538Z,47.38
2019-06-26T10:35:16.532Z,47.45
2019-06-26T10:37:43.199Z,45.58
2019-06-26T10:40:11.553Z,47.85
2019-06-26T10:43:01.916Z,45.75
2019-06-26T10:45:29.633Z,45.45
2019-06-26T10:47:58.827Z,46.02
2019-06-26T10:50:25.385Z,40.05
2019-06-26T10:52:51.720Z,33.78
2019-06-26T10:55:20.025Z,35.90
2019-06-26T10:57:46.461Z,33.85
2019-06-26T11:00:15.047Z,37.25
2019-06-26T11:02:41.673Z,36.98
2019-06-26T11:05:08.983Z,35.15
2019-06-26T11:07:36.689Z,34.70
2019-06-26T11:10:05.812Z,34.65
2019-06-26T11:12:32.199Z,34.80
2019-06-26T11:14:58.617Z,31.12
2019-06-26T11:17:24.918Z,35.00
2019-06-26T11:19:55.160Z,34.90
2019-06-26T11:22:19.713Z,32.23
2019-06-26T11:24:46.138Z,31.90
2019-06-26T11:27:12.668Z,32.78
2019-06-26T11:29:38.962Z,35.75
2019-06-26T11:32:09.296Z,34.53
2019-06-26T11:34:33.977Z,31.00
2019-06-26T11:37:04.313Z,28.45
2019-06-26T11:39:29.088Z,24.98
2019-06-26T11:41:55.498Z,29.70
2019-06-26T11:44:21.828Z,30.92
2019-06-26T11:46:48.568Z,30.92
2019-06-26T11:49:14.973Z,28.70
2019-06-26T11:51:41.414Z,27.15
2019-06-26T11:54:07.731Z,23.92
2019-06-26T11:56:34.982Z,27.22
2019-06-26T11:59:01.569Z,24.32
2019-06-26T12:01:27.891Z,27.45
2019-06-26T12:03:54.403Z,25.45
2019-06-26T12:06:20.880Z,32.08
2019-06-26T12:08:47.414Z,26.35
2019-06-26T12:11:14.215Z,21.95
2019-06-26T12:13:41.390Z,25.48
2019-06-26T12:16:07.812Z,22.32
2019-06-26T12:18:34.109Z,19.87
2019-06-26T12:21:00.503Z,21.15
2019-06-26T12:23:26.900Z,20.77
2019-06-26T12:25:53.309Z,18.32
2019-06-26T12:28:19.752Z,16.60
2019-06-26T12:30:46.065Z,15.40
2019-06-26T12:33:12.502Z,14.93
2019-06-26T12:35:38.962Z,14.53
2019-06-26T12:38:07.147Z,15.63
2019-06-26T12:40:33.631Z,12.55
2019-06-26T12:43:00.224Z,15.55
2019-06-26T12:45:26.655Z,14.18
2019-06-26T12:47:52.937Z,12.73
2019-06-26T12:50:34.891Z,14.25
2019-06-26T12:52:50.951Z,14.10
2019-06-26T12:55:17.596Z,13.60
2019-06-26T12:57:44.291Z,15.93
2019-06-26T13:00:11.832Z,13.70
2019-06-26T13:02:39.956Z,12.65
2019-06-26T13:05:06.856Z,11.43
2019-06-26T13:07:33.261Z,13.18
2019-06-26T13:09:59.968Z,15.83
2019-06-26T13:12:26.558Z,14.13
2019-06-26T13:14:53.902Z,17.30
2019-06-26T13:17:20.724Z,14.90
2019-06-26T13:19:47.328Z,14.78
2019-06-26T13:22:13.880Z,18.10
2019-06-26T13:24:43.817Z,16.23
2019-06-26T13:27:08.418Z,16.82
2019-06-26T13:29:34.718Z,14.93
2019-06-26T13:32:01.172Z,16.37
2019-06-26T13:34:27.545Z,18.12
2019-06-26T13:36:54.056Z,17.77
2019-06-26T13:39:20.724Z,21.07
2019-06-26T13:41:47.334Z,19.07
2019-06-26T13:44:13.877Z,21.33
2019-06-26T13:46:40.319Z,18.87
2019-06-26T13:49:06.803Z,20.02
2019-06-26T13:51:33.391Z,22.85
2019-06-26T13:53:59.822Z,23.42
2019-06-26T13:56:26.303Z,21.17
2019-06-26T13:58:52.859Z,24.18
2019-06-26T14:01:22.921Z,23.60
2019-06-26T14:03:47.838Z,29.35
2019-06-26T14:06:14.171Z,29.05
2019-06-26T14:08:40.541Z,28.92
2019-06-26T14:11:07.685Z,31.77
2019-06-26T14:13:34.091Z,25.97
2019-06-26T14:16:00.471Z,31.23
2019-06-26T14:18:30.302Z,30.20
2019-06-26T14:20:55.290Z,32.80
2019-06-26T14:23:21.897Z,27.37
2019-06-26T14:25:48.291Z,32.10
2019-06-26T14:28:14.664Z,30.02
2019-06-26T14:30:41.947Z,31.05
2019-06-26T14:33:08.305Z,36.98
2019-06-26T14:35:34.635Z,31.77
2019-06-26T14:38:20.796Z,33.05
2019-06-26T14:40:47.336Z,34.40
2019-06-26T14:43:14.425Z,28.98
2019-06-26T14:45:41.637Z,31.85
2019-06-26T14:48:08.740Z,35.98
2019-06-26T14:50:35.104Z,30.95
2019-06-26T14:53:01.694Z,34.25
2019-06-26T14:55:27.975Z,35.10
2019-06-26T14:57:54.405Z,35.68
2019-06-26T15:00:21.544Z,39.75
2019-06-26T15:02:48.215Z,40.60
2019-06-26T15:05:14.716Z,35.48
2019-06-26T15:07:41.241Z,33.63
2019-06-26T15:10:08.247Z,35.48
2019-06-26T15:12:34.744Z,35.90
2019-06-26T15:15:01.592Z,36.17
2019-06-26T15:17:31.029Z,34.53
2019-06-26T15:19:58.243Z,37.42
2019-06-26T15:22:25.836Z,41.92
2019-06-26T15:24:52.432Z,36.98
2019-06-26T15:27:19.486Z,35.68
2019-06-26T15:29:45.918Z,33.48
2019-06-26T15:32:14.192Z,36.42
2019-06-26T15:34:40.571Z,30.62
2019-06-26T15:37:09.635Z,33.05
2019-06-26T15:39:36.398Z,32.67
2019-06-26T15:42:02.935Z,40.20
2019-06-26T15:44:29.332Z,28.12
2019-06-26T15:46:55.744Z,29.72
2019-06-26T15:49:22.026Z,25.25
2019-06-26T15:51:48.741Z,28.30
2019-06-26T15:54:15.130Z,29.87
2019-06-26T15:56:41.478Z,22.85
2019-06-26T15:59:08.376Z,23.57
2019-06-26T16:01:35.016Z,22.70
2019-06-26T16:04:01.509Z,22.60
2019-06-26T16:06:27.979Z,27.62
2019-06-26T16:08:54.485Z,24.63
2019-06-26T16:11:22.221Z,23.38
2019-06-26T16:13:48.599Z,25.70
2019-06-26T16:16:16.803Z,25.05
2019-06-26T16:18:45.120Z,23.12
2019-06-26T16:21:11.670Z,23.42
2019-06-26T16:23:38.247Z,23.55
2019-06-26T16:26:05.133Z,21.50
2019-06-26T16:28:31.577Z,21.27
2019-06-26T16:30:58.616Z,19.65
2019-06-26T16:33:26.043Z,18.57
2019-06-26T16:35:52.621Z,18.77
2019-06-26T16:38:19.128Z,17.52
2019-06-26T16:40:45.568Z,19.82
2019-06-26T16:43:13.646Z,17.10
2019-06-26T16:45:40.026Z,15.10
2019-06-26T16:48:06.443Z,16.82
2019-06-26T16:50:32.913Z,16.90
2019-06-26T16:52:59.481Z,19.95
2019-06-26T16:55:25.893Z,15.65
2019-06-26T16:57:52.469Z,18.65
2019-06-26T17:00:20.131Z,17.00
2019-06-26T17:02:46.578Z,16.80
2019-06-26T17:05:13.285Z,15.18
2019-06-26T17:07:40.031Z,14.80
2019-06-26T17:10:06.972Z,17.52
2019-06-26T17:12:34.578Z,16.10
2019-06-26T17:15:04.138Z,17.23
2019-06-26T17:17:29.473Z,13.70
2019-06-26T17:19:56.044Z,18.05
2019-06-26T17:22:22.433Z,16.48
2019-06-26T17:24:48.773Z,18.30
2019-06-26T17:27:15.289Z,16.10
2019-06-26T17:29:41.737Z,22.75
2019-06-26T17:32:08.117Z,14.75
2019-06-26T17:34:34.835Z,14.60
2019-06-26T17:37:01.489Z,18.07
2019-06-26T17:39:28.155Z,14.70
2019-06-26T17:41:54.784Z,11.70
2019-06-26T17:44:21.203Z,11.00
2019-06-26T17:46:47.589Z,12.18
2019-06-26T17:49:14.024Z,13.20
2019-06-26T17:51:40.471Z,13.78
2019-06-26T17:54:07.085Z,12.13
2019-06-26T17:56:33.699Z,11.80
2019-06-26T17:59:02.396Z,11.73
2019-06-26T18:01:28.740Z,13.25
2019-06-26T18:03:55.243Z,9.78
2019-06-26T18:06:21.643Z,10.68
2019-06-26T18:08:48.168Z,10.95
2019-06-26T18:11:14.547Z,8.08
2019-06-26T18:13:40.977Z,9.03
2019-06-26T18:16:07.402Z,10.15
2019-06-26T18:18:33.842Z,7.28
2019-06-26T18:21:00.427Z,6.12
2019-06-26T18:23:37.265Z,7.85
2019-06-26T18:26:11.473Z,4.90
2019-06-26T18:28:24.873Z,5.17
2019-06-26T18:30:51.375Z,8.05
2019-06-26T18:33:18.553Z,8.40
2019-06-26T18:35:44.945Z,7.50
2019-06-26T18:38:11.812Z,7.03
2019-06-26T18:40:38.251Z,9.50
2019-06-26T18:43:04.545Z,9.38
2019-06-26T18:45:32.298Z,5.45
2019-06-26T18:47:58.907Z,8.53
2019-06-26T18:50:25.358Z,6.05
2019-06-26T18:52:51.786Z,7.97
2019-06-26T18:55:18.214Z,9.33
2019-06-26T18:57:44.653Z,8.85
2019-06-26T19:00:11.675Z,11.80
2019-06-26T19:02:40.510Z,8.88
2019-06-26T19:05:07.874Z,12.80
2019-06-26T19:07:34.303Z,9.73
2019-06-26T19:10:00.780Z,9.70
2019-06-26T19:12:27.368Z,10.55
2019-06-26T19:14:53.883Z,4.45
2019-06-26T19:17:22.838Z,6.92
2019-06-26T19:19:49.299Z,6.83
2019-06-26T19:22:17.293Z,8.55
2019-06-26T19:24:43.844Z,7.50
2019-06-26T19:27:10.196Z,7.85
2019-06-26T19:29:37.518Z,6.92
2019-06-26T19:32:04.133Z,6.03
2019-06-26T19:34:30.769Z,8.73
2019-06-26T19:36:57.158Z,11.68
2019-06-26T19:39:23.864Z,5.92
2019-06-26T19:41:50.511Z,9.60
2019-06-26T19:44:17.474Z,9.18
2019-06-26T19:46:43.997Z,9.88
2019-06-26T19:49:11.036Z,9.50
2019-06-26T19:51:38.829Z,8.10
2019-06-26T19:54:05.325Z,11.45
2019-06-26T19:56:31.801Z,9.73
2019-06-26T19:58:58.800Z,6.95
2019-06-26T20:01:25.399Z,9.95
2019-06-26T20:03:51.891Z,9.23
2019-06-26T20:06:18.413Z,6.28
2019-06-26T20:08:54.569Z,5.65
2019-06-26T20:11:14.322Z,6.83
2019-06-26T20:13:40.790Z,7.97
2019-06-26T20:16:07.369Z,10.65
2019-06-26T20:18:33.792Z,7.50
2019-06-26T20:21:00.216Z,11.05
2019-06-26T20:23:26.796Z,9.10
2019-06-26T20:25:53.209Z,7.47
2019-06-26T20:28:19.875Z,10.28
2019-06-26T20:30:46.256Z,5.42
2019-06-26T20:33:13.058Z,9.75
2019-06-26T20:35:39.555Z,7.78
2019-06-26T20:38:08.139Z,12.20
2019-06-26T20:40:40.102Z,9.73
2019-06-26T20:43:08.339Z,8.05
2019-06-26T20:45:34.999Z,10.58
2019-06-26T20:48:01.746Z,10.95
2019-06-26T20:50:28.736Z,8.28
2019-06-26T20:52:55.808Z,7.75
2019-06-26T20:55:22.810Z,9.63
2019-06-26T20:57:49.398Z,8.50
2019-06-26T21:00:16.216Z,9.08
2019-06-26T21:02:42.961Z,8.70
2019-06-26T21:05:10.955Z,9.38
2019-06-26T21:07:38.928Z,8.83
2019-06-26T21:10:06.051Z,6.35
2019-06-26T21:12:50.345Z,7.03
2019-06-26T21:15:18.320Z,10.63
2019-06-26T21:17:45.240Z,11.20
2019-06-26T21:20:14.765Z,7.22
2019-06-26T21:22:41.867Z,9.80
2019-06-26T21:25:18.185Z,7.83
2019-06-26T21:27:41.500Z,9.18
2019-06-26T21:30:09.074Z,10.32
2019-06-26T21:32:35.867Z,12.73
2019-06-26T21:35:04.376Z,6.85
2019-06-26T21:37:30.894Z,10.43
2019-06-26T21:39:57.427Z,11.38
2019-06-26T21:42:24.031Z,7.67
2019-06-26T21:44:50.591Z,8.48
2019-06-26T21:47:17.117Z,10.23
2019-06-26T21:49:43.554Z,12.73
2019-06-26T21:52:10.052Z,12.23
2019-06-26T21:54:36.539Z,8.50
2019-06-26T21:57:21.981Z,10.90
2019-06-26T22:00:16.324Z,11.53
2019-06-26T22:03:03.951Z,9.20
2019-06-26T22:05:32.638Z,9.25
2019-06-26T22:08:06.830Z,9.40
2019-06-26T22:10:38.079Z,7.58
2019-06-26T22:13:04.719Z,10.15
2019-06-26T22:15:31.691Z,6.90
2019-06-26T22:17:58.253Z,10.32
2019-06-26T22:20:24.871Z,7.78
2019-06-26T22:22:52.890Z,7.92
2019-06-26T22:25:19.631Z,7.25
2019-06-26T22:27:46.495Z,7.85
2019-06-26T22:30:13.619Z,8.10
2019-06-26T22:32:40.163Z,9.65
2019-06-26T22:35:07.646Z,8.95
2019-06-26T22:37:34.289Z,9.93
2019-06-26T22:40:00.907Z,9.33
2019-06-26T22:42:27.266Z,5.97
2019-06-26T22:44:53.795Z,8.58
2019-06-26T22:47:20.111Z,9.20
2019-06-26T22:49:46.580Z,7.95
2019-06-26T22:52:14.379Z,9.80
2019-06-26T22:54:40.679Z,9.10
2019-06-26T22:57:07.233Z,8.63
2019-06-26T22:59:33.686Z,10.08
2019-06-26T23:02:00.218Z,8.95
2019-06-26T23:04:26.827Z,8.13
2019-06-26T23:06:53.129Z,7.47
2019-06-26T23:09:19.531Z,12.80
2019-06-26T23:11:46.025Z,7.65
2019-06-26T23:14:12.836Z,11.78
2019-06-26T23:16:39.251Z,10.80
2019-06-26T23:19:05.634Z,6.30
2019-06-26T23:21:32.170Z,11.53
2019-06-26T23:23:58.596Z,11.03
2019-06-26T23:26:24.906Z,11.65
2019-06-26T23:28:51.299Z,10.28
2019-06-26T23:31:17.685Z,9.38
2019-06-26T23:33:44.119Z,12.70
2019-06-26T23:36:10.607Z,8.15
2019-06-26T23:38:37.258Z,12.63
2019-06-26T23:41:03.827Z,9.95
2019-06-26T23:43:30.299Z,10.32
2019-06-26T23:45:56.695Z,10.45
2019-06-26T23:48:23.153Z,9.80
2019-06-26T23:50:49.701Z,11.88
2019-06-26T23:53:15.995Z,13.62
2019-06-26T23:55:42.391Z,15.32
2019-06-26T23:58:08.753Z,11.25
